Time;durP1;ratioP1;P1;durP2;ratioP2;P2;SDS_P1;SDS_P2;PMS_P1;PMS_P2;Temp;Humidity;BMP_temperature;BMP_pressure;BME280_temperature;BME280_humidity;BME280_pressure;Samples;Min_cycle;Max_cycle;Signal;HPM_P1;HPM_P2
2023/06/11 10:58:03;;;;;;;6.43;4.40;;;;;;;30.47;35.59;96179.25;6211795;23;20092;-82
2023/06/11 11:00:32;;;;;;;9.70;5.63;;;;;;;30.62;36.57;96195.38;6161681;23;20048;-82
2023/06/11 11:03:00;;;;;;;8.38;5.03;;;;;;;29.55;37.84;96180.00;6187318;23;20011;-85
2023/06/11 11:05:26;;;;;;;7.70;4.85;;;;;;;30.57;35.43;96181.06;6162588;23;20072;-82
2023/06/11 11:07:53;;;;;;;8.05;4.93;;;;;;;31.57;33.44;96169.22;6214354;23;20489;-82
2023/06/11 11:10:24;;;;;;;6.82;4.45;;;;;;;31.96;33.44;96164.53;6161909;23;20046;-82
2023/06/11 11:12:49;;;;;;;11.85;4.88;;;;;;;32.14;33.01;96161.78;6162184;23;20019;-83
2023/06/11 11:15:15;;;;;;;7.32;4.80;;;;;;;32.86;31.51;96166.72;6161316;23;20001;-82
2023/06/11 11:17:42;;;;;;;7.25;4.95;;;;;;;31.38;33.68;96166.50;6162096;23;20005;-82
2023/06/11 11:20:19;;;;;;;6.18;4.25;;;;;;;33.63;30.90;96153.38;6161543;23;20088;-82
2023/06/11 11:22:55;;;;;;;7.40;4.53;;;;;;;33.45;28.49;96155.13;6161009;23;20000;-82
2023/06/11 11:25:27;;;;;;;10.00;4.85;;;;;;;32.65;29.09;96172.88;6186531;23;20139;-83
2023/06/11 11:27:53;;;;;;;;;;;;;;;32.23;29.55;96166.53;6188121;23;20007;-82
2023/06/11 11:30:19;;;;;;;6.35;4.97;;;;;;;34.02;28.69;96153.53;6161359;23;20002;-82
2023/06/11 11:32:45;;;;;;;7.28;4.90;;;;;;;33.03;30.17;96166.13;6186338;23;20024;-83
2023/06/11 11:35:13;;;;;;;17.92;5.13;;;;;;;33.66;29.22;96158.22;6213264;23;19997;-85
2023/06/11 11:37:39;;;;;;;6.70;4.50;;;;;;;33.49;29.95;96150.69;6161268;23;20012;-82
2023/06/11 11:40:08;;;;;;;9.45;4.82;;;;;;;33.86;29.20;96157.72;6161505;23;20062;-83
2023/06/11 11:42:45;;;;;;;6.28;4.32;;;;;;;33.96;29.08;96153.94;6161096;23;20070;-82
2023/06/11 11:45:14;;;;;;;15.65;5.30;;;;;;;34.57;28.16;96146.91;6185394;23;20004;-82
2023/06/11 11:47:59;;;;;;;6.35;4.72;;;;;;;33.30;28.82;96148.09;6161590;23;20450;-82
2023/06/11 11:50:27;;;;;;;6.53;4.45;;;;;;;33.59;27.62;96158.63;6161316;23;20008;-82
2023/06/11 11:53:03;;;;;;;6.25;4.43;;;;;;;32.52;29.82;96160.84;6162918;23;20004;-85
2023/06/11 11:55:34;;;;;;;6.75;4.63;;;;;;;33.37;28.56;96143.03;6216338;23;20437;-82
2023/06/11 11:58:18;;;;;;;8.40;4.25;;;;;;;33.37;29.28;96145.78;6165393;23;20019;-81
2023/06/11 12:00:48;;;;;;;6.82;4.25;;;;;;;33.52;28.50;96150.09;6164746;23;20003;-81
2023/06/11 12:03:16;;;;;;;5.75;4.40;;;;;;;34.24;28.16;96138.25;6216149;23;20432;-81
2023/06/11 12:05:42;;;;;;;7.53;4.57;;;;;;;33.25;29.48;96143.56;6215586;23;20020;-81
2023/06/11 12:08:08;;;;;;;6.22;4.45;;;;;;;34.31;27.69;96132.31;6163840;23;20031;-82
2023/06/11 12:10:34;;;;;;;7.68;4.53;;;;;;;33.70;28.61;96135.47;6186697;23;20574;-82
2023/06/11 12:13:00;;;;;;;7.47;5.78;;;;;;;33.22;29.03;96140.66;6186101;23;20005;-82
2023/06/11 12:15:28;;;;;;;6.20;4.45;;;;;;;34.18;28.21;96131.31;6212826;23;20032;-82
2023/06/11 12:17:54;;;;;;;6.28;4.40;;;;;;;34.70;27.72;96129.59;6187274;23;20432;-82
2023/06/11 12:20:23;;;;;;;123.20;18.85;;;;;;;33.83;28.39;96128.31;6165329;23;20004;-81
2023/06/11 12:22:49;;;;;;;8.85;4.20;;;;;;;33.26;28.84;96120.66;6164761;23;20000;-80
2023/06/11 12:25:15;;;;;;;6.13;4.00;;;;;;;33.17;27.79;96129.88;6164302;23;20012;-80
2023/06/11 12:27:41;;;;;;;7.15;3.83;;;;;;;34.11;28.70;96128.22;6214539;23;20011;-81
2023/06/11 12:30:07;;;;;;;4.97;3.85;;;;;;;33.61;28.12;96125.63;6214989;23;20004;-81
2023/06/11 12:32:33;;;;;;;6.47;4.28;;;;;;;33.06;29.28;96124.63;6163738;23;20032;-81
2023/06/11 12:35:03;;;;;;;7.47;4.82;;;;;;;31.74;29.64;96130.63;6163854;23;20489;-81
2023/06/11 12:37:29;;;;;;;6.53;4.45;;;;;;;31.59;29.62;96139.84;6163347;23;20020;-81
2023/06/11 12:39:55;;;;;;;5.93;4.50;;;;;;;33.49;28.48;96128.88;6163925;23;20008;-81
2023/06/11 12:42:22;;;;;;;8.00;4.22;;;;;;;32.51;28.22;96138.28;6164169;23;20009;-82
2023/06/11 12:44:50;;;;;;;8.82;4.80;;;;;;;33.87;26.91;96121.16;6163005;23;20083;-81
2023/06/11 12:47:17;;;;;;;6.10;4.15;;;;;;;33.47;27.15;96125.66;6188997;23;20004;-83
2023/06/11 12:49:43;;;;;;;6.53;4.57;;;;;;;32.82;27.90;96116.66;6163287;23;20087;-83
2023/06/11 12:52:12;;;;;;;9.45;5.00;;;;;;;33.22;28.44;96113.41;6163935;23;20036;-81
2023/06/11 12:54:39;;;;;;;6.28;4.25;;;;;;;32.53;29.70;96127.91;6187506;23;20009;-80
2023/06/11 12:57:05;;;;;;;6.53;4.63;;;;;;;31.38;31.76;96135.81;6188600;23;20015;-81
2023/06/11 12:59:31;;;;;;;7.13;4.72;;;;;;;32.86;30.59;96116.88;6189653;23;20024;-81
2023/06/11 13:01:56;;;;;;;6.22;4.65;;;;;;;32.44;29.12;96116.09;6163537;23;20027;-80
2023/06/11 13:04:24;;;;;;;4.82;4.03;;;;;;;32.75;29.28;96120.94;6188665;23;20052;-80
2023/06/11 13:06:50;;;;;;;5.97;4.68;;;;;;;32.53;29.35;96113.47;6188836;23;20529;-80
2023/06/11 13:09:16;;;;;;;8.95;4.70;;;;;;;32.43;29.78;96106.31;6189113;23;20032;-80
2023/06/11 13:11:58;;;;;;;6.22;4.30;;;;;;;32.77;29.90;96105.91;6163807;23;19996;-80
2023/06/11 13:14:23;;;;;;;6.00;4.47;;;;;;;32.23;29.90;96102.06;6163870;23;20055;-80
2023/06/11 13:16:51;;;;;;;7.55;4.43;;;;;;;32.48;29.24;96100.78;6189037;23;20005;-80
2023/06/11 13:19:17;;;;;;;6.55;4.45;;;;;;;32.65;27.71;96104.78;6163814;23;20297;-80
2023/06/11 13:21:44;;;;;;;6.00;4.32;;;;;;;32.02;28.71;96101.59;6188923;23;20008;-80
2023/06/11 13:24:09;;;;;;;9.82;4.30;;;;;;;33.04;28.93;96088.72;6188277;23;20012;-80
2023/06/11 13:26:35;;;;;;;7.30;4.47;;;;;;;33.52;28.29;96090.91;6188518;23;20086;-80
2023/06/11 13:29:01;;;;;;;5.97;4.50;;;;;;;32.43;29.40;96100.88;6215147;23;20000;-80
2023/06/11 13:31:27;;;;;;;6.30;4.13;;;;;;;31.64;31.16;96096.25;6188691;23;20008;-81
2023/06/11 13:33:52;;;;;;;9.95;4.45;;;;;;;32.31;30.07;96089.66;6188681;23;20032;-81
2023/06/11 13:36:21;;;;;;;12.50;5.30;;;;;;;32.16;29.96;96083.41;6214993;23;20023;-81
2023/06/11 13:38:46;;;;;;;11.68;5.05;;;;;;;33.85;28.33;96090.66;6164134;23;20008;-81
2023/06/11 13:41:12;;;;;;;7.93;4.72;;;;;;;32.45;29.22;96092.41;6163563;23;20011;-80
2023/06/11 13:43:37;;;;;;;7.53;4.20;;;;;;;31.66;30.32;96090.53;6189011;23;20011;-80
2023/06/11 13:46:03;;;;;;;6.75;4.10;;;;;;;31.84;29.64;96086.13;6187058;23;20046;-80
2023/06/11 13:48:29;;;;;;;8.30;4.32;;;;;;;32.53;30.05;96084.34;6162616;23;20457;-80
2023/06/11 13:50:55;;;;;;;6.65;4.68;;;;;;;31.72;29.74;96080.34;6184268;23;20011;-80
2023/06/11 13:53:23;;;;;;;7.53;5.20;;;;;;;32.50;29.63;96082.22;6185351;23;20004;-80
2023/06/11 13:55:49;;;;;;;5.53;4.20;;;;;;;32.87;28.81;96069.47;6184805;23;20001;-80
2023/06/11 13:58:15;;;;;;;7.38;4.55;;;;;;;32.08;29.39;96086.00;6185007;23;20009;-80
2023/06/11 14:00:42;;;;;;;6.30;4.80;;;;;;;32.05;28.71;96083.88;6184147;23;20004;-80
2023/06/11 14:03:08;;;;;;;5.90;4.50;;;;;;;33.06;28.33;96078.31;6160549;23;20004;-80
2023/06/11 14:05:51;;;;;;;7.13;4.35;;;;;;;32.89;27.60;96077.31;6160291;23;20001;-80
2023/06/11 14:08:19;;;;;;;7.22;4.55;;;;;;;32.37;28.22;96072.13;6161484;23;20004;-79
2023/06/11 14:10:48;;;;;;;7.30;4.18;;;;;;;32.16;28.29;96074.44;6185455;23;20011;-84
2023/06/11 14:14:12;;;;;;;;;;;;;;;;;;;;;
2023/06/11 14:17:02;;;;;;;;;;;;;;;;;;;;;
2023/06/11 14:20:00;;;;;;;;;;;;;;;;;;;;;
2023/06/11 14:22:40;;;;;;;6.05;4.20;;;;;;;32.38;28.58;96079.16;6211892;23;20141;-81
2023/06/11 14:25:26;;;;;;;7.50;4.13;;;;;;;31.80;28.62;96061.44;6189917;23;20031;-82
2023/06/11 14:27:51;;;;;;;7.95;4.53;;;;;;;32.42;27.85;96063.03;6160454;23;20451;-81
2023/06/11 14:30:19;;;;;;;5.20;3.80;;;;;;;31.65;28.22;96064.44;6185292;23;20019;-82
2023/06/11 14:32:44;;;;;;;6.80;4.53;;;;;;;31.82;28.12;96058.41;6160272;23;20076;-81
2023/06/11 14:35:10;;;;;;;6.40;4.60;;;;;;;32.17;28.41;96060.53;6160133;23;20112;-81
2023/06/11 14:37:35;;;;;;;5.88;4.15;;;;;;;31.04;29.36;96062.66;6160171;23;20207;-81
2023/06/11 14:40:01;;;;;;;7.28;4.30;;;;;;;31.84;29.39;96053.50;6184531;23;20004;-81
2023/06/11 14:42:27;;;;;;;6.22;4.75;;;;;;;31.48;29.81;96056.03;6160432;23;20008;-83
2023/06/11 14:44:52;;;;;;;6.32;4.35;;;;;;;31.23;30.51;96047.97;6160210;23;20012;-84
2023/06/11 14:47:18;;;;;;;7.53;4.75;;;;;;;31.58;30.51;96040.34;6160327;23;20013;-83
2023/06/11 14:49:44;;;;;;;6.13;4.55;;;;;;;31.78;29.85;96038.38;6160266;23;20005;-85
2023/06/11 14:52:10;;;;;;;9.82;3.90;;;;;;;31.56;29.08;96042.56;6164448;23;20440;-86
2023/06/11 14:54:36;;;;;;;5.55;3.85;;;;;;;31.00;28.61;96033.38;6164956;23;20027;-90
2023/06/11 14:57:17;;;;;;;6.57;4.47;;;;;;;31.55;29.11;96037.41;6163664;23;20024;-87
2023/06/11 14:59:43;;;;;;;6.45;4.50;;;;;;;31.07;30.36;96029.47;6165091;23;20008;-86
2023/06/11 15:02:16;;;;;;;6.28;4.30;;;;;;;30.71;31.84;96036.19;6189628;23;20068;-86
2023/06/11 15:04:43;;;;;;;7.95;4.97;;;;;;;30.36;30.73;96036.69;6164611;23;19996;-87
2023/06/11 15:07:12;;;;;;;5.47;4.07;;;;;;;30.27;30.75;96028.34;6163504;23;20008;-86
2023/06/11 15:09:39;;;;;;;6.85;4.30;;;;;;;30.18;29.96;96030.91;6161713;23;20008;-86
2023/06/11 15:12:05;;;;;;;6.88;3.85;;;;;;;30.67;30.08;96026.22;6161743;23;20028;-87
2023/06/11 15:14:31;;;;;;;6.65;4.10;;;;;;;30.91;29.21;96023.47;6186401;23;20436;-86
2023/06/11 15:16:57;;;;;;;8.15;4.68;;;;;;;30.13;29.48;96033.66;6161602;23;20095;-86
2023/06/11 15:19:24;;;;;;;6.82;4.40;;;;;;;30.92;29.74;96033.22;6161578;23;20016;-86
2023/06/11 15:21:50;;;;;;;7.88;4.70;;;;;;;30.68;30.03;96023.19;6161216;23;20005;-87
2023/06/11 15:24:17;;;;;;;8.70;4.40;;;;;;;31.16;28.83;96017.66;6186468;23;20538;-87
2023/06/11 15:26:43;;;;;;;8.20;4.40;;;;;;;30.95;28.12;96009.03;6214409;23;20512;-87
2023/06/11 15:29:10;;;;;;;5.97;3.78;;;;;;;30.65;29.11;96018.38;6187771;23;20036;-86
2023/06/11 15:31:36;;;;;;;5.65;4.20;;;;;;;30.83;29.85;96018.72;6163768;23;20015;-88
2023/06/11 15:34:14;;;;;;;6.07;4.45;;;;;;;30.06;31.10;96017.72;6167356;23;20004;-90
2023/06/11 15:36:40;;;;;;;8.75;4.20;;;;;;;30.16;30.67;96011.38;6167791;23;20012;-86
2023/06/11 15:39:06;;;;;;;6.88;4.22;;;;;;;30.27;30.47;96017.50;6169006;23;20016;-86
2023/06/11 15:41:31;;;;;;;6.05;4.43;;;;;;;29.82;30.28;96016.91;6164246;23;20015;-86
2023/06/11 15:44:02;;;;;;;6.40;4.22;;;;;;;30.35;29.54;96007.91;6164538;23;20005;-87
2023/06/11 15:46:27;;;;;;;7.35;4.05;;;;;;;30.77;29.38;95998.97;6164334;23;20063;-86
2023/06/11 15:48:54;;;;;;;7.28;3.45;;;;;;;31.22;28.59;96000.16;6187541;23;20163;-86
2023/06/11 15:51:21;;;;;;;6.43;4.20;;;;;;;31.33;27.95;96005.47;6162986;23;20012;-86
2023/06/11 15:53:46;;;;;;;5.78;3.95;;;;;;;31.24;28.76;95997.94;6162564;23;20087;-86
2023/06/11 15:56:12;;;;;;;8.85;4.68;;;;;;;31.53;28.21;96005.13;6192345;23;20083;-87
2023/06/11 15:58:38;;;;;;;7.40;4.20;;;;;;;30.71;30.40;96006.34;6173359;23;20451;-87
2023/06/11 16:01:03;;;;;;;7.38;4.30;;;;;;;30.34;31.50;96012.53;6167809;23;20079;-87
2023/06/11 16:03:29;;;;;;;5.95;4.05;;;;;;;29.09;31.98;96015.09;6162985;23;20001;-86
2023/06/11 16:05:55;;;;;;;8.13;4.50;;;;;;;29.35;33.15;96016.50;6163078;23;20055;-86
2023/06/11 16:08:20;;;;;;;8.38;4.65;;;;;;;29.25;33.01;96016.59;6162535;23;20008;-84
2023/06/11 16:10:48;;;;;;;7.28;4.13;;;;;;;29.43;33.10;96011.56;6163534;23;20433;-84
2023/06/11 16:13:14;;;;;;;6.90;4.30;;;;;;;29.94;32.54;96008.38;6161263;23;20000;-84
2023/06/11 16:15:43;;;;;;;5.93;4.20;;;;;;;29.96;32.45;95998.84;6163385;23;20093;-85
2023/06/11 16:18:10;;;;;;;7.55;4.35;;;;;;;30.40;32.22;95999.72;6162365;23;20013;-85
2023/06/11 16:20:35;;;;;;;5.88;4.50;;;;;;;30.64;31.54;95999.66;6162696;23;20424;-85
2023/06/11 16:23:02;;;;;;;6.25;4.43;;;;;;;30.81;31.23;95993.75;6161985;23;20036;-84
2023/06/11 16:25:28;;;;;;;7.32;4.25;;;;;;;30.59;30.85;96005.19;6161724;23;20436;-84
2023/06/11 16:27:54;;;;;;;6.53;4.00;;;;;;;30.79;30.84;95996.78;6186956;23;20012;-84
2023/06/11 16:30:19;;;;;;;6.57;3.80;;;;;;;30.06;32.65;96011.50;6163197;23;20019;-84
2023/06/11 16:32:45;;;;;;;6.70;4.30;;;;;;;29.67;34.52;96017.06;6181340;23;20008;-84
2023/06/11 16:35:11;;;;;;;6.93;4.10;;;;;;;29.95;34.73;96023.56;6179693;23;20048;-85
2023/06/11 16:37:39;;;;;;;6.43;4.13;;;;;;;29.59;35.38;96013.88;6162965;23;20050;-86
2023/06/11 16:40:07;;;;;;;7.82;5.13;;;;;;;29.81;35.09;96016.13;6188593;23;20025;-85
2023/06/11 16:42:34;;;;;;;6.47;4.65;;;;;;;29.72;34.99;96006.97;6217305;23;20071;-90
2023/06/11 16:44:59;;;;;;;10.02;5.25;;;;;;;30.13;34.33;96006.53;6166679;23;20050;-91
2023/06/11 16:47:25;;;;;;;7.60;4.20;;;;;;;29.74;35.40;96006.69;6188941;23;20009;-89
2023/06/11 16:49:57;;;;;;;7.22;4.10;;;;;;;29.66;36.92;96002.69;6165507;23;20008;-89
2023/06/11 16:52:36;;;;;;;7.35;4.07;;;;;;;30.43;34.71;96001.84;6166851;23;20087;-89
2023/06/11 16:55:03;;;;;;;8.98;4.35;;;;;;;29.87;35.44;96007.91;6164703;23;20302;-89
2023/06/11 16:57:28;;;;;;;6.97;4.40;;;;;;;29.44;35.88;96010.47;6174229;23;20015;-90
2023/06/11 16:59:54;;;;;;;5.85;3.97;;;;;;;29.86;36.61;96019.84;6189055;23;20008;-84
2023/06/11 17:02:21;;;;;;;6.28;4.05;;;;;;;29.80;36.72;96002.81;6168804;23;20008;-89
2023/06/11 17:04:46;;;;;;;8.63;4.28;;;;;;;29.50;38.31;96014.75;6168640;23;20139;-89
2023/06/11 17:07:12;;;;;;;6.82;4.53;;;;;;;28.85;41.36;96015.78;6167349;23;20004;-89
2023/06/11 17:09:41;;;;;;;7.65;4.32;;;;;;;28.65;43.13;96003.19;6174607;23;20004;-89
2023/06/11 17:12:07;;;;;;;8.85;4.15;;;;;;;28.47;44.34;96003.84;6171462;23;20004;-89
2023/06/11 17:14:33;;;;;;;6.20;4.25;;;;;;;27.65;47.94;96025.66;6174591;23;20009;-90
2023/06/11 17:16:59;;;;;;;8.20;4.95;;;;;;;28.10;46.74;96015.88;6181161;23;20074;-89
2023/06/11 17:19:25;;;;;;;8.57;4.40;;;;;;;27.74;45.53;96021.34;6178091;23;20004;-90
2023/06/11 17:21:50;;;;;;;6.38;4.60;;;;;;;28.17;43.92;96015.56;6175091;23;20357;-90
2023/06/11 17:24:16;;;;;;;6.70;4.68;;;;;;;28.06;42.93;96008.56;6174153;23;20012;-88
2023/06/11 17:26:41;;;;;;;6.63;4.18;;;;;;;28.16;41.53;96016.63;6160852;23;20387;-89
2023/06/11 17:29:09;;;;;;;6.43;4.40;;;;;;;27.98;42.98;96022.66;6161944;23;20008;-90
2023/06/11 17:31:34;;;;;;;5.90;4.28;;;;;;;28.22;42.39;96012.84;6186550;23;20012;-91
2023/06/11 17:34:00;;;;;;;6.10;3.95;;;;;;;28.12;41.95;96007.47;6167413;23;20079;-91
2023/06/11 17:36:25;;;;;;;5.45;3.85;;;;;;;28.16;42.66;96020.16;6194902;23;20014;-92
2023/06/11 17:38:52;;;;;;;6.68;4.32;;;;;;;28.59;41.24;96011.59;6184824;23;20014;-91
2023/06/11 17:41:17;;;;;;;5.43;3.85;;;;;;;27.92;43.42;96025.38;6240467;23;20008;-91
2023/06/11 17:43:43;;;;;;;7.75;4.70;;;;;;;27.98;44.39;96011.84;6189967;23;19988;-92
2023/06/11 17:46:11;;;;;;;6.78;4.15;;;;;;;28.35;42.42;96017.66;6178605;23;20000;-91
2023/06/11 17:48:44;;;;;;;5.68;4.15;;;;;;;27.88;44.24;96021.59;6217425;23;19995;-91
2023/06/11 17:51:09;;;;;;;;;;;;;;;28.13;45.12;96019.88;6186069;23;20040;-91
2023/06/11 17:53:35;;;;;;;7.13;4.82;;;;;;;27.70;46.04;96019.47;6193668;23;19904;-93
2023/06/11 17:56:00;;;;;;;8.98;5.43;;;;;;;28.25;44.69;96023.09;6191886;23;20021;-93
2023/06/11 17:58:26;;;;;;;6.18;4.25;;;;;;;27.99;45.28;96021.56;6192492;23;19996;-93
2023/06/11 18:00:51;;;;;;;6.45;4.43;;;;;;;28.18;45.47;96017.19;6193160;23;20008;-93
2023/06/11 18:03:17;;;;;;;6.05;3.78;;;;;;;27.58;41.78;96019.75;6192628;23;20007;-93
2023/06/11 18:05:43;;;;;;;5.88;3.90;;;;;;;27.44;42.08;96022.19;6167045;23;19999;-93
2023/06/11 18:08:08;;;;;;;6.00;3.40;;;;;;;27.72;38.32;96028.09;6191965;23;20059;-92
2023/06/11 18:10:34;;;;;;;5.72;3.80;;;;;;;27.69;38.10;96023.22;6166998;23;20008;-93
2023/06/11 18:13:01;;;;;;;5.80;3.65;;;;;;;27.40;38.18;96018.41;6167688;23;20013;-81
2023/06/11 18:16:04;;;;;;;87.28;12.32;;;;;;;27.81;38.26;96029.19;6191037;23;20004;-93
2023/06/11 18:18:31;;;;;;;9.68;4.25;;;;;;;27.63;39.41;96027.00;6191849;23;20004;-93
2023/06/11 18:20:57;;;;;;;28.92;6.50;;;;;;;27.62;39.81;96020.00;6191692;23;20005;-92
2023/06/11 18:23:23;;;;;;;5.18;3.55;;;;;;;27.65;38.69;96024.88;6191677;23;20009;-88
2023/06/11 18:25:50;;;;;;;6.85;3.67;;;;;;;27.88;38.45;96018.91;6192870;23;20004;-93
2023/06/11 18:28:16;;;;;;;6.32;3.50;;;;;;;27.53;39.40;96025.13;6190623;23;20008;-94
2023/06/11 18:30:41;;;;;;;7.00;4.22;;;;;;;27.40;39.92;96015.72;6191244;23;20027;-93
2023/06/11 18:33:07;;;;;;;8.65;3.53;;;;;;;27.36;40.01;96020.00;6166837;23;20432;-94
2023/06/11 18:35:33;;;;;;;5.15;3.25;;;;;;;27.78;39.59;96012.72;6167012;23;20012;-94
2023/06/11 18:37:59;;;;;;;5.82;3.50;;;;;;;27.66;39.78;96012.97;6165464;23;20005;-81
2023/06/11 18:40:25;;;;;;;5.20;3.50;;;;;;;27.72;39.51;96009.19;6164307;23;20344;-90
2023/06/11 18:42:54;;;;;;;5.90;3.60;;;;;;;27.69;40.02;96015.94;6164555;23;20019;-89
2023/06/11 18:45:20;;;;;;;5.15;3.67;;;;;;;27.42;39.83;96010.84;6173083;23;20008;-91
2023/06/11 18:47:46;;;;;;;6.15;3.65;;;;;;;27.10;39.81;96015.69;6164782;23;20014;-90
2023/06/11 18:50:12;;;;;;;5.55;3.58;;;;;;;27.34;40.04;96016.00;6163065;23;20009;-90
2023/06/11 18:52:38;;;;;;;8.88;3.47;;;;;;;27.04;40.60;96021.06;6166564;23;20063;-93
2023/06/11 18:55:29;;;;;;;5.25;3.40;;;;;;;27.36;39.79;96017.31;6196930;23;20060;-94
2023/06/11 18:58:14;;;;;;;8.48;4.22;;;;;;;27.35;39.39;96015.72;6172217;23;20424;-94
2023/06/11 19:00:40;;;;;;;5.35;3.55;;;;;;;27.14;39.36;96022.19;6173570;23;20088;-94
2023/06/11 19:03:06;;;;;;;6.72;3.72;;;;;;;26.98;38.98;96019.44;6192531;23;20004;-94
2023/06/11 19:05:31;;;;;;;6.85;4.55;;;;;;;26.75;38.78;96028.06;6177571;23;20015;-84
2023/06/11 19:08:12;;;;;;;4.65;3.22;;;;;;;26.70;38.24;96025.34;6165594;23;20016;-84
2023/06/11 19:10:38;;;;;;;5.97;3.63;;;;;;;26.55;38.24;96026.91;6174568;23;20719;-84
2023/06/11 19:13:08;;;;;;;4.93;3.42;;;;;;;26.40;39.14;96031.44;6157929;23;20008;-83
2023/06/11 19:15:33;;;;;;;6.78;3.25;;;;;;;26.53;39.33;96028.28;6161831;23;20088;-82
2023/06/11 19:17:59;;;;;;;6.43;3.60;;;;;;;26.55;39.97;96039.59;6155071;23;20060;-83
2023/06/11 19:20:27;;;;;;;5.88;3.53;;;;;;;26.33;40.75;96037.88;6157482;23;20062;-84
2023/06/11 19:22:53;;;;;;;5.22;3.88;;;;;;;26.39;40.91;96036.03;6132213;23;20023;-83
2023/06/11 19:25:20;;;;;;;6.00;3.15;;;;;;;26.53;41.08;96042.56;6154174;23;20011;-82
2023/06/11 19:27:46;;;;;;;6.60;3.00;;;;;;;26.38;41.86;96049.75;6154282;23;20007;-93
2023/06/11 19:30:13;;;;;;;8.93;3.55;;;;;;;26.13;42.09;96058.56;6161526;23;20009;-93
2023/06/11 19:32:40;;;;;;;7.05;4.07;;;;;;;25.99;43.48;96063.59;6183352;23;20001;-93
2023/06/11 19:35:08;;;;;;;6.35;4.00;;;;;;;26.02;42.87;96061.19;6151708;23;20083;-93
2023/06/11 19:37:34;;;;;;;6.03;3.42;;;;;;;26.25;41.99;96056.44;6156113;23;20482;-94
2023/06/11 19:40:00;;;;;;;6.03;3.65;;;;;;;26.32;42.55;96059.69;6157366;23;20582;-94
2023/06/11 19:42:43;;;;;;;6.88;3.53;;;;;;;26.07;42.12;96057.72;6167710;23;20009;-94
2023/06/11 19:45:09;;;;;;;6.38;3.78;;;;;;;25.88;42.90;96073.50;6217781;23;20070;-93
2023/06/11 19:47:37;;;;;;;7.78;4.00;;;;;;;25.83;44.37;96068.91;6167670;23;20000;-94
2023/06/11 19:50:04;;;;;;;9.68;4.97;;;;;;;25.84;45.08;96072.41;6168956;23;20012;-92
2023/06/11 19:52:30;;;;;;;6.82;3.72;;;;;;;25.93;44.36;96070.84;6167265;23;20012;-91
2023/06/11 19:54:57;;;;;;;7.75;5.47;;;;;;;25.78;45.67;96078.78;6168968;23;20012;-92
2023/06/11 19:57:23;;;;;;;5.75;3.88;;;;;;;25.72;45.83;96075.28;6168638;23;20596;-92
2023/06/11 19:59:49;;;;;;;6.20;4.00;;;;;;;25.58;47.53;96074.88;6180876;23;20012;-92
2023/06/11 20:02:18;;;;;;;7.38;4.03;;;;;;;25.62;48.71;96078.69;6173845;23;20008;-91
2023/06/11 20:04:43;;;;;;;5.00;3.92;;;;;;;25.53;49.03;96082.13;6148483;23;20011;-91
2023/06/11 20:07:14;;;;;;;5.55;3.47;;;;;;;25.37;50.27;96081.19;6141211;23;20354;-92
2023/06/11 20:09:42;;;;;;;5.45;3.30;;;;;;;25.20;51.19;96080.50;6138372;23;20012;-91
2023/06/11 20:12:08;;;;;;;7.03;3.90;;;;;;;25.17;51.87;96084.50;6137924;23;20414;-92
2023/06/11 20:14:38;;;;;;;6.75;3.70;;;;;;;24.95;52.22;96092.63;6162910;23;20012;-91
2023/06/11 20:17:04;;;;;;;6.05;3.70;;;;;;;24.99;51.29;96091.03;6148249;23;20005;-91
2023/06/11 20:19:30;;;;;;;5.43;3.65;;;;;;;24.73;51.84;96092.66;6149474;23;20005;-92
2023/06/11 20:22:17;;;;;;;5.63;3.35;;;;;;;24.86;51.81;96094.94;6103250;23;20691;-91
2023/06/11 20:24:43;;;;;;;5.28;3.45;;;;;;;24.74;53.12;96101.53;6158981;23;20008;-89
2023/06/11 20:27:10;;;;;;;8.65;3.63;;;;;;;24.71;54.20;96097.44;6115209;23;20431;-92
2023/06/11 20:29:36;;;;;;;10.10;4.82;;;;;;;24.79;54.35;96093.53;6103891;23;20015;-91
2023/06/11 20:32:01;;;;;;;7.40;4.28;;;;;;;24.72;54.91;96095.59;6070935;23;20393;-91
2023/06/11 20:34:27;;;;;;;7.63;4.80;;;;;;;24.52;56.24;96091.59;6084196;23;20092;-91
2023/06/11 20:37:05;;;;;;;8.82;5.50;;;;;;;24.38;56.68;96088.47;6154412;23;20027;-90
2023/06/11 20:39:31;;;;;;;8.27;5.72;;;;;;;24.16;58.93;96088.44;6105317;23;20035;-91
2023/06/11 20:41:56;;;;;;;7.22;4.18;;;;;;;24.08;59.66;96088.88;6108072;23;20001;-91
2023/06/11 20:44:22;;;;;;;6.00;3.65;;;;;;;24.18;59.03;96099.75;6108260;23;20032;-90
2023/06/11 20:46:47;;;;;;;5.57;3.40;;;;;;;23.99;59.94;96095.72;6112990;23;20043;-90
2023/06/11 20:49:13;;;;;;;4.85;3.10;;;;;;;24.14;58.99;96093.22;6137026;23;20012;-91
2023/06/11 20:51:39;;;;;;;6.47;4.03;;;;;;;23.90;60.54;96098.00;6121104;23;20076;-91
2023/06/11 20:54:05;;;;;;;5.57;3.30;;;;;;;23.87;61.99;96097.69;6119345;23;20040;-91
2023/06/11 20:56:30;;;;;;;5.57;3.55;;;;;;;23.86;61.95;96102.25;6124052;23;20024;-91
2023/06/11 20:58:56;;;;;;;6.25;3.83;;;;;;;23.41;64.98;96094.28;6128467;23;20008;-91
2023/06/11 21:01:22;;;;;;;7.25;4.07;;;;;;;23.50;65.53;96095.50;6160120;23;20365;-91
2023/06/11 21:03:48;;;;;;;5.35;3.75;;;;;;;23.73;64.05;96097.22;6144331;23;20023;-91
2023/06/11 21:06:13;;;;;;;7.47;3.92;;;;;;;23.46;66.28;96095.16;6145151;23;20951;-90
2023/06/11 21:08:40;;;;;;;4.97;3.60;;;;;;;23.46;66.86;96089.00;6143971;23;20290;-91
2023/06/11 21:11:06;;;;;;;6.80;3.38;;;;;;;23.09;70.49;96104.72;6142609;23;20107;-91
2023/06/11 21:13:32;;;;;;;5.82;3.72;;;;;;;22.86;73.54;96106.44;6145958;23;20039;-91
2023/06/11 21:15:57;;;;;;;8.65;5.05;;;;;;;23.12;72.70;96096.22;6148405;23;20012;-91
2023/06/11 21:18:23;;;;;;;6.18;4.72;;;;;;;23.18;73.05;96098.72;6145750;23;20331;-91
2023/06/11 21:20:53;;;;;;;7.80;4.60;;;;;;;23.07;72.96;96096.91;6151325;23;20071;-93
2023/06/11 21:23:20;;;;;;;5.95;4.05;;;;;;;22.98;74.34;96099.19;6170035;23;20015;-93
2023/06/11 21:25:47;;;;;;;7.60;3.85;;;;;;;22.86;76.81;96093.03;6186011;23;20008;-93
2023/06/11 21:28:25;;;;;;;6.55;4.13;;;;;;;22.43;79.92;96104.25;6188280;23;20056;-93
2023/06/11 21:30:51;;;;;;;5.55;3.70;;;;;;;22.69;78.39;96094.84;6185697;23;20012;-93
2023/06/11 21:33:17;;;;;;;7.32;3.70;;;;;;;22.48;80.41;96102.50;6185844;23;20039;-92
2023/06/11 21:35:44;;;;;;;6.65;4.05;;;;;;;22.37;81.70;96100.66;6174864;23;20065;-93
2023/06/11 21:38:11;;;;;;;6.30;4.05;;;;;;;22.24;83.13;96101.75;6174914;23;20000;-93
2023/06/11 21:40:37;;;;;;;5.63;4.22;;;;;;;22.33;83.04;96100.34;6170751;23;20079;-93
2023/06/11 21:43:03;;;;;;;7.88;4.53;;;;;;;22.35;83.41;96092.84;6169883;23;20454;-93
2023/06/11 21:45:28;;;;;;;5.97;3.75;;;;;;;22.14;85.30;96096.13;6168957;23;20332;-93
2023/06/11 21:47:54;;;;;;;6.95;3.80;;;;;;;22.23;85.07;96100.13;6167992;23;20445;-92
2023/06/11 21:50:20;;;;;;;8.48;3.97;;;;;;;22.23;85.39;96093.94;6152765;23;20020;-92
2023/06/11 21:52:45;;;;;;;6.38;3.80;;;;;;;22.46;83.75;96087.69;6154667;23;20008;-92
2023/06/11 21:55:11;;;;;;;6.63;3.95;;;;;;;22.07;87.19;96090.09;6152624;23;20017;-92
2023/06/11 21:57:36;;;;;;;8.00;4.43;;;;;;;22.05;86.12;96087.63;6210329;23;19993;-92
2023/06/11 22:00:10;;;;;;;5.05;3.40;;;;;;;22.38;85.75;96090.75;6156220;23;20067;-92
2023/06/11 22:02:42;;;;;;;6.30;4.68;;;;;;;22.11;87.45;96086.69;6184680;23;20060;-92
2023/06/11 22:05:09;;;;;;;6.85;4.43;;;;;;;21.95;88.83;96095.44;6186203;23;20005;-92
2023/06/11 22:07:35;;;;;;;6.63;4.38;;;;;;;22.28;87.20;96089.50;6149408;23;20028;-92
2023/06/11 22:10:03;;;;;;;6.45;4.40;;;;;;;22.01;89.15;96099.06;6144983;23;20035;-91
2023/06/11 22:12:36;;;;;;;6.88;4.53;;;;;;;22.00;89.16;96092.91;6161552;23;20001;-93
2023/06/11 22:15:03;;;;;;;;;;;;;;;21.91;90.23;96094.31;6138383;23;20015;-92
2023/06/11 22:17:31;;;;;;;9.25;4.38;;;;;;;21.83;91.06;96095.47;6130688;23;19908;-91
2023/06/11 22:19:59;;;;;;;7.15;4.75;;;;;;;21.89;91.44;96099.88;6139617;23;20091;-92
2023/06/11 22:22:25;;;;;;;8.68;5.60;;;;;;;21.98;91.48;96086.16;6166171;23;20581;-92
2023/06/11 22:24:52;;;;;;;7.97;4.63;;;;;;;21.97;91.32;96092.56;6164830;23;20016;-93
2023/06/11 22:27:21;;;;;;;6.45;4.25;;;;;;;21.92;92.15;96087.06;6163927;23;20087;-92
2023/06/11 22:29:47;;;;;;;6.45;4.72;;;;;;;21.86;93.49;96095.00;6164379;23;20008;-92
2023/06/11 22:32:13;;;;;;;37.00;6.60;;;;;;;21.61;93.99;96097.09;6190296;23;20431;-90
2023/06/11 22:34:52;;;;;;;6.20;4.30;;;;;;;21.70;95.00;96094.91;6192575;23;20420;-92
2023/06/11 22:37:17;;;;;;;9.63;4.32;;;;;;;21.58;95.09;96092.19;6192790;23;20000;-92